Time;durP1;ratioP1;P1;durP2;ratioP2;P2;SDS_P1;SDS_P2;PMS_P1;PMS_P2;Temp;Humidity;BMP_temperature;BMP_pressure;BME280_temperature;BME280_humidity;BME280_pressure;Samples;Min_cycle;Max_cycle;Signal;HPM_P1;HPM_P2
2022/08/06 00:02:11;;;;;;;3.15;1.08;;;;;;;24.98;36.79;102689.69;5115687;28;20467;-76
2022/08/06 00:04:37;;;;;;;2.58;1.20;;;;;;;24.61;37.48;102690.31;5097241;28;20031;-76
2022/08/06 00:07:02;;;;;;;3.83;1.00;;;;;;;24.78;37.47;102686.97;5096576;28;20023;-76
2022/08/06 00:09:30;;;;;;;6.20;1.30;;;;;;;24.47;38.27;102694.38;5097166;28;20437;-76
2022/08/06 00:12:00;;;;;;;3.42;1.30;;;;;;;24.55;37.98;102686.94;5097008;28;20031;-76
2022/08/06 00:14:27;;;;;;;5.03;1.67;;;;;;;24.67;37.73;102696.28;5096237;28;20072;-75
2022/08/06 00:16:53;;;;;;;2.97;1.15;;;;;;;25.28;36.56;102691.09;5097025;28;20031;-76
2022/08/06 00:19:18;;;;;;;3.88;1.27;;;;;;;24.78;37.47;102692.31;5096909;28;20015;-76
2022/08/06 00:21:44;;;;;;;2.92;1.20;;;;;;;25.10;36.51;102703.47;5096412;28;20026;-76
2022/08/06 00:24:09;;;;;;;3.05;1.00;;;;;;;24.71;37.73;102692.53;5097076;28;20063;-76
2022/08/06 00:26:37;;;;;;;2.65;1.33;;;;;;;24.81;37.08;102698.41;5095828;28;20034;-76
2022/08/06 00:29:02;;;;;;;2.90;1.40;;;;;;;24.83;37.06;102707.22;5115170;28;20463;-75
2022/08/06 00:31:28;;;;;;;3.25;1.35;;;;;;;24.49;37.96;102707.69;5096993;28;20055;-76
2022/08/06 00:33:55;;;;;;;3.85;1.30;;;;;;;24.41;38.42;102707.13;5096108;28;20073;-76
2022/08/06 00:36:21;;;;;;;3.03;1.45;;;;;;;24.25;38.25;102714.84;5096506;28;20028;-76
2022/08/06 00:38:47;;;;;;;4.78;1.35;;;;;;;24.32;38.52;102717.25;5096863;28;20110;-76
2022/08/06 00:41:14;;;;;;;2.88;1.23;;;;;;;24.32;38.17;102716.38;5096026;28;20031;-76
2022/08/06 00:43:41;;;;;;;2.25;1.00;;;;;;;24.37;38.13;102719.72;5096406;28;20043;-75
2022/08/06 00:46:07;;;;;;;4.57;1.30;;;;;;;24.68;37.44;102723.91;5096628;28;20051;-76
2022/08/06 00:48:32;;;;;;;3.83;1.33;;;;;;;24.58;37.20;102717.13;5113962;28;20122;-76
2022/08/06 00:50:57;;;;;;;2.03;1.23;;;;;;;24.56;37.70;102725.22;5096433;28;20068;-76
2022/08/06 00:53:23;;;;;;;3.38;1.10;;;;;;;24.45;37.86;102722.09;5114691;28;20065;-76
2022/08/06 00:55:48;;;;;;;3.00;1.45;;;;;;;24.55;37.35;102721.69;5095938;28;20379;-76
2022/08/06 00:58:13;;;;;;;2.20;1.20;;;;;;;24.95;36.13;102707.66;5096587;28;20030;-76
2022/08/06 01:00:39;;;;;;;6.18;1.23;;;;;;;24.25;37.97;102725.53;5096483;28;20027;-76
2022/08/06 01:03:05;;;;;;;4.82;1.58;;;;;;;24.44;37.72;102726.59;5095636;28;20027;-76
2022/08/06 01:05:30;;;;;;;6.35;2.00;;;;;;;24.53;37.50;102725.34;5095751;28;20076;-76
2022/08/06 01:07:55;;;;;;;3.85;1.73;;;;;;;24.39;38.06;102723.22;5096258;28;20157;-76
2022/08/06 01:10:24;;;;;;;3.67;1.42;;;;;;;24.81;36.81;102730.50;5095636;28;20026;-76
2022/08/06 01:12:49;;;;;;;7.65;1.60;;;;;;;24.54;37.36;102729.78;5114707;28;20106;-76
2022/08/06 01:15:15;;;;;;;3.67;1.30;;;;;;;24.39;37.80;102733.91;5114359;28;20055;-75
2022/08/06 01:17:52;;;;;;;2.50;1.38;;;;;;;24.39;37.80;102733.91;5095440;28;20395;-76
2022/08/06 01:20:48;;;;;;;3.15;1.70;;;;;;;24.27;38.20;102743.25;5095843;28;20024;-76
2022/08/06 01:23:41;;;;;;;3.75;1.50;;;;;;;24.61;37.38;102743.78;5095122;28;20048;-76
2022/08/06 01:26:09;;;;;;;;;;;;;;;24.25;38.09;102752.25;5096392;28;20066;-76
2022/08/06 01:28:40;;;;;;;3.40;1.17;;;;;;;24.22;38.14;102747.88;5113760;28;20288;-76
2022/08/06 01:31:13;;;;;;;4.65;1.40;;;;;;;24.08;38.38;102751.06;5094919;28;20471;-76
2022/08/06 01:33:52;;;;;;;3.17;1.90;;;;;;;23.93;38.61;102746.31;5114239;28;20011;-75
2022/08/06 01:36:23;;;;;;;3.80;1.98;;;;;;;23.97;38.45;102743.47;5095689;28;20031;-76
2022/08/06 01:38:52;;;;;;;6.78;1.60;;;;;;;24.02;38.41;102748.66;5095021;28;20016;-76
2022/08/06 01:41:40;;;;;;;1.77;1.33;;;;;;;24.27;37.87;102750.41;5113838;28;20027;-76
2022/08/06 01:44:22;;;;;;;5.03;1.58;;;;;;;24.49;37.59;102740.63;5094788;28;20034;-76
2022/08/06 01:46:55;;;;;;;5.10;1.77;;;;;;;23.94;38.40;102748.91;5095126;28;20022;-76
2022/08/06 01:49:27;;;;;;;7.82;1.63;;;;;;;24.24;37.67;102755.88;5113344;28;20049;-76
2022/08/06 01:51:56;;;;;;;4.32;1.45;;;;;;;24.17;37.74;102755.22;5094580;28;20073;-76
2022/08/06 01:54:24;;;;;;;3.25;1.50;;;;;;;23.82;38.65;102755.56;5113424;28;20070;-76
2022/08/06 01:56:52;;;;;;;4.00;1.40;;;;;;;24.32;37.95;102753.78;5095109;28;20033;-75
2022/08/06 01:59:22;;;;;;;3.53;1.48;;;;;;;23.99;38.09;102751.44;5112528;28;20080;-75
2022/08/06 02:01:52;;;;;;;4.63;1.40;;;;;;;23.86;38.24;102751.84;5094850;28;20034;-76
2022/08/06 02:04:19;;;;;;;3.42;1.35;;;;;;;23.96;38.41;102746.19;5094981;28;20066;-76
2022/08/06 02:06:47;;;;;;;2.40;1.60;;;;;;;24.08;37.83;102748.41;5094305;28;20027;-75
2022/08/06 02:09:20;;;;;;;1.98;1.38;;;;;;;23.65;38.45;102747.28;5113223;28;20092;-76
2022/08/06 02:12:01;;;;;;;2.13;1.40;;;;;;;23.74;38.81;102744.28;5113029;28;20163;-76
2022/08/06 02:14:30;;;;;;;2.47;1.45;;;;;;;24.17;37.39;102755.22;5094954;28;20027;-75
2022/08/06 02:16:59;;;;;;;4.93;1.52;;;;;;;23.94;37.73;102746.25;5112306;28;20023;-76
2022/08/06 02:19:26;;;;;;;4.00;1.35;;;;;;;23.72;38.89;102748.78;5112096;28;20402;-76
2022/08/06 02:21:54;;;;;;;3.00;1.55;;;;;;;23.90;37.83;102744.63;5094723;28;20026;-76
2022/08/06 02:24:22;;;;;;;2.85;1.65;;;;;;;23.97;37.92;102742.59;5094620;28;20415;-76
2022/08/06 02:26:48;;;;;;;4.95;1.67;;;;;;;23.64;38.41;102740.19;5094008;28;20502;-76
2022/08/06 02:29:17;;;;;;;4.40;1.65;;;;;;;24.19;37.43;102745.34;5112789;28;20030;-75
2022/08/06 02:31:43;;;;;;;2.53;1.38;;;;;;;23.18;39.74;102748.84;5112929;28;20039;-76
2022/08/06 02:34:09;;;;;;;2.05;1.50;;;;;;;23.43;39.34;102752.47;5093977;28;20026;-76
2022/08/06 02:36:46;;;;;;;7.30;1.40;;;;;;;23.45;39.23;102756.84;5094749;28;20027;-76
2022/08/06 02:39:35;;;;;;;3.90;1.35;;;;;;;23.86;38.44;102762.53;5094820;28;20375;-75
2022/08/06 02:42:11;;;;;;;4.97;1.42;;;;;;;23.64;39.39;102751.72;5112208;28;20422;-76
2022/08/06 02:44:44;;;;;;;3.30;1.17;;;;;;;23.75;38.84;102759.34;5112294;28;20066;-76
2022/08/06 02:47:16;;;;;;;;;;;;;;;23.97;38.35;102758.63;5093887;28;20055;-76
2022/08/06 02:49:46;;;;;;;2.17;1.20;;;;;;;23.74;38.39;102752.28;5112342;28;19961;-76
2022/08/06 02:52:21;;;;;;;5.95;1.30;;;;;;;23.44;39.85;102749.75;5094137;28;20123;-76
2022/08/06 02:54:56;;;;;;;3.58;1.10;;;;;;;23.63;39.61;102751.78;5093801;28;20383;-76
2022/08/06 02:57:28;;;;;;;2.42;1.50;;;;;;;23.65;38.79;102757.94;5094331;28;20027;-76
2022/08/06 03:00:01;;;;;;;1.17;0.95;;;;;;;23.58;38.46;102756.44;5094238;28;20030;-76
2022/08/06 03:02:29;;;;;;;1.25;1.10;;;;;;;23.45;39.99;102767.53;5093347;28;20019;-76
2022/08/06 03:04:56;;;;;;;4.45;1.05;;;;;;;23.58;39.45;102772.44;5093945;28;20080;-76
2022/08/06 03:07:26;;;;;;;4.82;1.30;;;;;;;23.47;39.70;102767.47;5094276;28;20023;-75
2022/08/06 03:09:54;;;;;;;1.67;1.33;;;;;;;23.69;38.90;102764.91;5093412;28;20020;-76
2022/08/06 03:12:20;;;;;;;2.90;0.93;;;;;;;23.48;39.79;102764.75;5094043;28;20046;-75
2022/08/06 03:14:48;;;;;;;2.38;1.17;;;;;;;23.40;39.97;102764.13;5094135;28;20055;-76
2022/08/06 03:17:16;;;;;;;3.13;1.48;;;;;;;23.76;38.91;102766.44;5093186;28;20479;-75
2022/08/06 03:19:44;;;;;;;2.20;1.52;;;;;;;23.47;39.74;102770.13;5094141;28;20027;-76
2022/08/06 03:22:11;;;;;;;2.67;1.42;;;;;;;24.10;38.11;102775.94;5093844;28;20024;-75
2022/08/06 03:24:38;;;;;;;5.18;1.38;;;;;;;23.49;39.72;102768.28;5093203;28;20015;-76
2022/08/06 03:27:05;;;;;;;1.42;0.90;;;;;;;23.61;39.22;102767.00;5094099;28;20012;-76
2022/08/06 03:29:33;;;;;;;3.65;1.25;;;;;;;23.71;39.12;102768.38;5095494;28;20059;-75
2022/08/06 03:31:59;;;;;;;1.65;1.15;;;;;;;23.69;39.54;102770.25;5097664;28;20459;-76
2022/08/06 03:34:28;;;;;;;3.65;1.35;;;;;;;23.73;39.61;102771.91;5097900;28;20028;-75
2022/08/06 03:36:55;;;;;;;5.55;1.15;;;;;;;23.91;38.83;102769.53;5115436;28;20527;-76
2022/08/06 03:39:22;;;;;;;2.63;1.25;;;;;;;23.48;40.17;102774.53;5097813;28;20020;-76
2022/08/06 03:41:48;;;;;;;3.40;1.35;;;;;;;23.66;39.34;102781.06;5116061;28;20475;-76
2022/08/06 03:44:14;;;;;;;2.05;1.10;;;;;;;23.76;39.44;102787.81;5096868;28;20054;-75
2022/08/06 03:47:05;;;;;;;1.20;0.88;;;;;;;23.93;38.78;102778.34;5097726;28;20028;-76
2022/08/06 03:49:40;;;;;;;2.97;1.20;;;;;;;23.63;39.59;102775.78;5115968;28;20462;-76
2022/08/06 03:52:07;;;;;;;3.47;1.10;;;;;;;23.93;38.42;102778.34;5096624;28;20050;-76
2022/08/06 03:54:38;;;;;;;4.18;1.35;;;;;;;23.36;39.46;102778.50;5097429;28;20039;-76
2022/08/06 03:57:11;;;;;;;1.90;1.30;;;;;;;23.48;39.51;102783.41;5115689;28;20032;-76
2022/08/06 03:59:39;;;;;;;2.33;1.17;;;;;;;23.44;39.07;102781.78;5115230;28;20023;-76
2022/08/06 04:02:06;;;;;;;5.20;1.20;;;;;;;23.65;38.84;102779.31;5097464;28;20470;-76
2022/08/06 04:04:33;;;;;;;2.10;1.20;;;;;;;23.57;38.75;102781.38;5115073;28;20034;-76
2022/08/06 04:07:00;;;;;;;2.03;1.17;;;;;;;23.01;40.57;102783.13;5097435;28;20046;-76
2022/08/06 04:09:27;;;;;;;4.30;1.55;;;;;;;23.06;40.42;102791.88;5115215;28;20115;-76
2022/08/06 04:11:54;;;;;;;1.77;1.13;;;;;;;23.11;40.14;102792.59;5096822;28;20773;-76
2022/08/06 04:14:20;;;;;;;3.28;1.20;;;;;;;23.10;40.60;102785.53;5097362;28;20027;-76
2022/08/06 04:16:48;;;;;;;2.72;1.60;;;;;;;23.24;40.28;102785.09;5097139;28;20054;-76
2022/08/06 04:19:14;;;;;;;1.58;1.30;;;;;;;23.02;40.89;102796.41;5096322;28;20111;-76
2022/08/06 04:21:39;;;;;;;1.60;1.45;;;;;;;23.59;39.07;102792.84;5115228;28;20027;-76
2022/08/06 04:24:05;;;;;;;1.60;1.05;;;;;;;23.49;39.46;102790.50;5096925;28;20028;-76
2022/08/06 04:26:33;;;;;;;1.73;1.08;;;;;;;23.05;39.65;102795.44;5096450;28;20427;-76
2022/08/06 04:29:00;;;;;;;1.85;1.23;;;;;;;23.08;40.99;102795.38;5096773;28;20364;-76
2022/08/06 04:31:29;;;;;;;3.75;1.30;;;;;;;23.05;40.66;102800.78;5096784;28;20456;-76
2022/08/06 04:33:55;;;;;;;4.20;1.17;;;;;;;23.16;40.33;102796.03;5114403;28;20038;-76
2022/08/06 04:36:21;;;;;;;2.53;1.38;;;;;;;22.79;40.69;102805.16;5096601;28;20062;-76
2022/08/06 04:38:47;;;;;;;2.38;1.25;;;;;;;23.16;40.30;102798.69;5115129;28;20037;-76
2022/08/06 04:41:13;;;;;;;1.77;1.30;;;;;;;22.87;40.78;102803.13;5113663;28;20027;-76
2022/08/06 04:43:40;;;;;;;2.28;1.10;;;;;;;23.14;40.52;102800.53;5096648;28;20023;-77
2022/08/06 04:46:07;;;;;;;2.38;1.20;;;;;;;23.08;40.66;102802.50;5096676;28;20051;-76
2022/08/06 04:48:33;;;;;;;2.85;1.20;;;;;;;23.40;39.70;102796.16;5114139;28;20027;-76
2022/08/06 04:51:02;;;;;;;3.20;1.65;;;;;;;23.14;40.65;102805.00;5115018;28;20023;-77
2022/08/06 04:53:34;;;;;;;1.42;1.33;;;;;;;23.12;40.72;102807.72;5096537;28;20031;-77
2022/08/06 04:56:00;;;;;;;2.17;1.40;;;;;;;22.93;41.14;102806.50;5096081;28;20034;-76
2022/08/06 04:58:25;;;;;;;1.50;1.38;;;;;;;23.23;40.54;102815.34;5114503;28;20086;-77
2022/08/06 05:00:50;;;;;;;2.47;1.67;;;;;;;23.45;40.16;102815.56;5114162;28;20043;-77
2022/08/06 05:03:16;;;;;;;2.65;1.10;;;;;;;23.41;40.39;102813.91;5114535;28;20028;-76
2022/08/06 05:06:12;;;;;;;6.50;1.17;;;;;;;23.51;40.15;102823.34;5114545;28;20454;-76
2022/08/06 05:08:41;;;;;;;3.53;1.23;;;;;;;23.62;40.06;102816.78;5095442;28;20027;-76
2022/08/06 05:11:15;;;;;;;1.67;1.20;;;;;;;23.40;40.35;102821.94;5114325;28;20024;-76
2022/08/06 05:13:43;;;;;;;4.47;1.50;;;;;;;23.30;40.44;102821.38;5096155;28;20027;-76
2022/08/06 05:16:11;;;;;;;1.42;1.13;;;;;;;23.26;40.87;102825.06;5113588;28;20020;-76
2022/08/06 05:18:42;;;;;;;2.38;1.55;;;;;;;23.65;40.48;102827.34;5095982;28;20086;-77
2022/08/06 05:21:10;;;;;;;2.80;1.10;;;;;;;23.93;39.83;102831.75;5096353;28;20567;-76
2022/08/06 05:23:43;;;;;;;2.03;1.10;;;;;;;23.53;40.62;102829.50;5095453;28;20106;-76
2022/08/06 05:26:09;;;;;;;2.33;1.30;;;;;;;23.83;40.10;102839.19;5114437;28;20151;-76
2022/08/06 05:28:38;;;;;;;1.27;1.13;;;;;;;23.90;39.47;102838.06;5114117;28;20032;-75
2022/08/06 05:31:04;;;;;;;2.28;1.20;;;;;;;23.86;39.84;102845.31;5095624;28;20016;-77
2022/08/06 05:33:32;;;;;;;1.98;0.90;;;;;;;23.96;39.83;102853.00;5095832;28;20027;-76
2022/08/06 05:35:58;;;;;;;1.45;0.80;;;;;;;24.07;40.07;102849.97;5095376;28;20028;-76
2022/08/06 05:38:26;;;;;;;2.55;1.20;;;;;;;24.08;39.56;102852.56;5095902;28;20062;-77
2022/08/06 05:40:52;;;;;;;2.15;0.75;;;;;;;24.15;39.75;102848.78;5095851;28;20030;-76
2022/08/06 05:43:17;;;;;;;2.30;1.10;;;;;;;24.25;39.70;102859.13;5113155;28;20042;-77
2022/08/06 05:45:44;;;;;;;4.25;1.15;;;;;;;24.21;39.88;102869.06;5095399;28;20052;-76
2022/08/06 05:48:11;;;;;;;5.00;1.10;;;;;;;24.22;39.38;102863.66;5095424;28;20027;-76
2022/08/06 05:50:43;;;;;;;1.20;0.80;;;;;;;24.46;39.06;102863.69;5094733;28;20023;-76
2022/08/06 05:53:21;;;;;;;1.17;0.80;;;;;;;24.28;39.25;102864.38;5095372;28;20118;-76
2022/08/06 05:55:50;;;;;;;2.92;0.90;;;;;;;24.51;38.72;102864.41;5095673;28;20099;-76
2022/08/06 05:58:28;;;;;;;1.67;0.90;;;;;;;24.13;38.98;102877.34;5094698;28;20015;-76
2022/08/06 06:00:57;;;;;;;1.83;0.90;;;;;;;24.18;39.50;102875.38;5095600;28;20084;-76
2022/08/06 06:03:23;;;;;;;1.42;0.85;;;;;;;24.63;38.06;102879.13;5095458;28;20383;-76
2022/08/06 06:05:49;;;;;;;1.25;0.88;;;;;;;24.38;38.75;102877.31;5113111;28;20535;-76
2022/08/06 06:08:14;;;;;;;4.40;0.93;;;;;;;24.37;38.21;102885.38;5094992;28;20028;-76
2022/08/06 06:10:41;;;;;;;2.58;0.88;;;;;;;24.80;38.87;102894.53;5095419;28;20031;-76
2022/08/06 06:13:07;;;;;;;0.90;0.90;;;;;;;24.95;37.48;102887.75;5094520;28;20066;-76
2022/08/06 06:15:43;;;;;;;3.00;0.73;;;;;;;25.10;37.72;102896.97;5094970;28;20029;-76
2022/08/06 06:18:28;;;;;;;3.63;0.98;;;;;;;25.33;37.37;102892.53;5112931;28;20463;-76
2022/08/06 06:21:15;;;;;;;2.17;0.80;;;;;;;25.53;37.00;102889.91;5095255;28;20027;-77
2022/08/06 06:23:54;;;;;;;1.33;0.60;;;;;;;25.53;36.65;102892.59;5095174;28;20395;-77
2022/08/06 06:26:39;;;;;;;1.75;0.68;;;;;;;25.80;36.01;102887.03;5094496;28;20023;-77
2022/08/06 06:29:15;;;;;;;1.27;0.80;;;;;;;25.92;35.41;102882.94;5094606;28;20031;-77
2022/08/06 06:31:44;;;;;;;1.73;0.55;;;;;;;26.05;34.90;102899.41;5094930;28;20034;-77
2022/08/06 06:34:17;;;;;;;1.80;0.55;;;;;;;26.42;35.04;102889.75;5093931;28;20032;-77
2022/08/06 06:37:09;;;;;;;2.63;0.60;;;;;;;26.52;34.55;102888.38;5094877;28;20061;-77
2022/08/06 06:39:54;;;;;;;5.78;0.73;;;;;;;25.33;35.13;102897.88;5093787;28;20070;-76
2022/08/06 06:42:28;;;;;;;1.75;0.38;;;;;;;25.96;35.49;102897.94;5094739;28;20072;-76
2022/08/06 06:45:02;;;;;;;1.75;0.47;;;;;;;26.63;34.07;102903.13;5094857;28;20108;-77
2022/08/06 06:47:59;;;;;;;1.70;0.32;;;;;;;26.91;33.93;102908.97;5093794;28;20464;-77
2022/08/06 06:50:42;;;;;;;2.00;0.50;;;;;;;26.92;34.16;102899.97;5094624;28;20034;-77
2022/08/06 06:53:10;;;;;;;2.22;0.70;;;;;;;27.30;33.12;102908.94;5112491;28;20023;-77
2022/08/06 06:55:44;;;;;;;1.00;0.40;;;;;;;26.87;32.89;102898.44;5094220;28;20019;-77
2022/08/06 06:58:20;;;;;;;2.08;0.68;;;;;;;27.50;32.28;102895.44;5094062;28;20019;-77
2022/08/06 07:00:46;;;;;;;0.32;0.32;;;;;;;29.19;29.76;102894.66;5112253;28;20383;-77
2022/08/06 07:03:12;;;;;;;1.33;0.40;;;;;;;29.55;29.27;102891.69;5095454;28;20020;-77
2022/08/06 07:05:40;;;;;;;1.33;0.43;;;;;;;30.88;27.81;102899.78;5100921;28;20543;-77
2022/08/06 07:08:08;;;;;;;0.52;0.38;;;;;;;31.71;26.06;102906.13;5118534;28;20073;-77
2022/08/06 07:10:34;;;;;;;2.42;0.60;;;;;;;32.72;24.97;102908.16;5100823;28;20066;-77
2022/08/06 07:13:01;;;;;;;2.53;0.50;;;;;;;32.17;24.99;102911.09;5101100;28;20019;-77
2022/08/06 07:15:28;;;;;;;0.95;0.40;;;;;;;32.68;24.55;102904.75;5100149;28;20031;-77
2022/08/06 07:17:55;;;;;;;0.45;0.32;;;;;;;32.40;26.38;102905.91;5119091;28;20020;-77
2022/08/06 07:20:31;;;;;;;1.02;0.40;;;;;;;34.03;23.51;102913.75;5101113;28;20024;-77
2022/08/06 07:23:03;;;;;;;0.70;0.40;;;;;;;34.56;23.09;102914.09;5118442;28;20356;-77
2022/08/06 07:25:29;;;;;;;0.60;0.35;;;;;;;34.66;23.70;102920.50;5100741;28;20016;-77
2022/08/06 07:27:54;;;;;;;1.38;0.45;;;;;;;34.07;23.39;102920.69;5119142;28;20387;-77
2022/08/06 07:30:21;;;;;;;1.35;0.40;;;;;;;36.06;22.83;102917.13;5100542;28;20544;-77
2022/08/06 07:32:48;;;;;;;0.20;0.20;;;;;;;34.40;22.48;102921.72;5119250;28;20055;-77
2022/08/06 07:35:16;;;;;;;0.75;0.40;;;;;;;36.08;19.71;102923.28;5100821;28;20023;-78
2022/08/06 07:37:49;;;;;;;1.30;0.30;;;;;;;36.09;20.05;102922.28;5100136;28;20454;-77
2022/08/06 07:40:22;;;;;;;0.60;0.10;;;;;;;34.75;20.75;102928.91;5100819;28;20102;-77
2022/08/06 07:42:53;;;;;;;0.73;0.30;;;;;;;36.02;20.88;102929.25;5100316;28;20027;-77
2022/08/06 07:45:22;;;;;;;1.20;0.30;;;;;;;35.77;22.39;102923.19;5100573;28;20143;-77
2022/08/06 07:47:49;;;;;;;0.30;0.30;;;;;;;34.09;21.27;102930.44;5100815;28;20391;-77
2022/08/06 07:50:16;;;;;;;1.05;0.40;;;;;;;36.67;18.57;102927.16;5099568;28;20402;-77
2022/08/06 07:52:43;;;;;;;3.08;0.35;;;;;;;35.61;21.13;102924.53;5100625;28;20016;-76
2022/08/06 07:55:12;;;;;;;0.52;0.38;;;;;;;35.74;19.88;102923.47;5118976;28;20096;-77
2022/08/06 07:57:39;;;;;;;3.63;0.57;;;;;;;35.39;21.15;102927.31;5118434;28;20478;-76
2022/08/06 08:00:05;;;;;;;0.40;0.30;;;;;;;36.79;18.31;102930.63;5100252;28;20398;-77
2022/08/06 08:02:31;;;;;;;0.98;0.28;;;;;;;36.82;18.89;102941.28;5100510;28;20030;-77
2022/08/06 08:07:41;;;;;;;0.20;0.20;;;;;;;35.45;21.55;102940.41;5118989;28;20034;-76
2022/08/06 08:10:07;;;;;;;0.20;0.10;;;;;;;35.31;19.08;102947.84;5118968;28;20027;-76
2022/08/06 08:12:36;;;;;;;3.03;0.32;;;;;;;35.67;19.84;102945.72;5099738;28;20458;-77
2022/08/06 08:15:03;;;;;;;1.70;0.40;;;;;;;33.76;21.24;102956.44;5098082;28;20031;-76
2022/08/06 08:17:29;;;;;;;0.95;0.40;;;;;;;34.69;21.17;102948.38;5096944;28;20031;-76
2022/08/06 08:20:05;;;;;;;0.30;0.30;;;;;;;35.42;19.58;102944.25;5114676;28;20055;-77
2022/08/06 08:22:30;;;;;;;1.30;0.30;;;;;;;36.95;18.82;102947.34;5097087;28;20032;-77
2022/08/06 08:24:56;;;;;;;0.75;0.40;;;;;;;37.73;17.56;102953.88;5096374;28;20021;-76
2022/08/06 08:27:22;;;;;;;0.43;0.40;;;;;;;37.02;17.38;102950.38;5096797;28;20031;-76
2022/08/06 08:29:47;;;;;;;0.85;0.35;;;;;;;36.54;17.86;102949.19;5115033;28;20493;-77
2022/08/06 08:32:12;;;;;;;0.55;0.30;;;;;;;36.44;18.00;102943.69;5114371;28;20542;-77
2022/08/06 08:34:38;;;;;;;1.33;0.82;;;;;;;37.54;18.91;102947.44;5096903;28;20031;-76
2022/08/06 08:37:03;;;;;;;0.82;0.43;;;;;;;36.73;17.57;102953.00;5096886;28;20051;-78
2022/08/06 08:39:30;;;;;;;2.10;0.43;;;;;;;36.81;16.63;102950.47;5096138;28;20023;-76
2022/08/06 08:42:09;;;;;;;1.40;0.20;;;;;;;39.15;16.50;102943.81;5096508;28;20027;-77
2022/08/06 08:44:35;;;;;;;2.08;0.45;;;;;;;39.92;16.01;102946.03;5096665;28;20090;-76
2022/08/06 08:47:01;;;;;;;3.55;0.70;;;;;;;38.25;17.03;102945.38;5095783;28;20436;-76
2022/08/06 08:49:41;;;;;;;0.75;0.38;;;;;;;35.04;20.13;102948.25;5114701;28;20031;-75
2022/08/06 08:52:12;;;;;;;0.77;0.30;;;;;;;38.55;17.02;102944.25;5096415;28;20398;-76
2022/08/06 08:54:41;;;;;;;0.30;0.30;;;;;;;39.09;17.54;102944.41;5095542;28;20111;-76
2022/08/06 08:57:08;;;;;;;0.80;0.50;;;;;;;37.84;16.79;102932.81;5096377;28;20020;-76
2022/08/06 08:59:36;;;;;;;0.75;0.30;;;;;;;37.12;17.88;102947.66;5096179;28;20023;-77
2022/08/06 09:02:03;;;;;;;2.00;0.60;;;;;;;37.65;17.37;102943.72;5095507;28;20096;-76
2022/08/06 09:04:31;;;;;;;1.50;0.40;;;;;;;38.17;18.26;102944.22;5096156;28;20015;-76
2022/08/06 09:06:57;;;;;;;2.10;0.40;;;;;;;38.79;17.15;102945.63;5095314;28;20042;-76
2022/08/06 09:09:24;;;;;;;1.65;0.30;;;;;;;37.12;17.80;102948.53;5095940;28;20187;-76
2022/08/06 09:11:49;;;;;;;0.98;0.30;;;;;;;32.83;22.62;102956.97;5095849;28;20058;-76
2022/08/06 09:14:14;;;;;;;1.15;0.38;;;;;;;31.28;24.37;102956.63;5095039;28;20093;-76
2022/08/06 09:16:40;;;;;;;0.55;0.50;;;;;;;32.42;23.74;102952.63;5114163;28;20024;-76
2022/08/06 09:19:06;;;;;;;1.63;0.40;;;;;;;30.90;24.82;102957.25;5095955;28;20023;-76
2022/08/06 09:21:32;;;;;;;0.45;0.40;;;;;;;31.23;24.69;102961.47;5113389;28;20510;-76
2022/08/06 09:23:58;;;;;;;2.70;0.40;;;;;;;31.01;25.34;102958.38;5113719;28;20024;-77
2022/08/06 09:26:24;;;;;;;0.80;0.40;;;;;;;31.83;24.63;102955.78;5095392;28;20030;-77
2022/08/06 09:28:49;;;;;;;2.78;0.40;;;;;;;31.76;24.14;102953.47;5095066;28;20028;-77
2022/08/06 09:31:19;;;;;;;0.95;0.35;;;;;;;33.19;22.49;102957.94;5095494;28;20028;-77
2022/08/06 09:33:59;;;;;;;0.30;0.30;;;;;;;31.67;23.74;102961.34;5095597;28;20020;-77
2022/08/06 09:36:26;;;;;;;0.95;0.20;;;;;;;35.11;20.32;102945.91;5113032;28;20032;-77
2022/08/06 09:38:55;;;;;;;0.63;0.50;;;;;;;36.62;19.84;102945.78;5095321;28;20019;-77
2022/08/06 09:41:22;;;;;;;0.45;0.28;;;;;;;35.67;18.20;102947.59;5113679;28;20047;-77
2022/08/06 09:43:51;;;;;;;0.20;0.15;;;;;;;35.75;18.71;102952.38;5094942;28;20026;-77
2022/08/06 09:46:18;;;;;;;0.90;0.35;;;;;;;34.25;19.20;102951.81;5095019;28;20511;-76
2022/08/06 09:49:00;;;;;;;0.25;0.25;;;;;;;36.85;17.89;102946.47;5095327;28;20035;-77
2022/08/06 09:51:26;;;;;;;;;;;;;;;37.86;17.06;102940.84;5094927;28;20086;-76
2022/08/06 09:53:57;;;;;;;0.45;0.30;;;;;;;37.22;17.04;102943.13;5094961;28;19992;-76
2022/08/06 09:56:23;;;;;;;0.52;0.20;;;;;;;35.72;17.63;102948.03;5094451;28;20038;-76
2022/08/06 09:58:50;;;;;;;0.35;0.30;;;;;;;34.38;18.46;102945.44;5094929;28;20027;-76
2022/08/06 10:01:17;;;;;;;0.17;0.10;;;;;;;35.94;18.58;102940.81;5094979;28;20390;-77
2022/08/06 10:03:43;;;;;;;0.63;0.17;;;;;;;35.87;19.00;102940.47;5112482;28;20043;-76
2022/08/06 10:06:11;;;;;;;2.25;0.40;;;;;;;36.13;17.96;102938.19;5113414;28;20483;-77
2022/08/06 10:08:37;;;;;;;1.33;0.40;;;;;;;35.19;19.22;102945.25;5094993;28;20024;-78
2022/08/06 10:11:03;;;;;;;0.22;0.22;;;;;;;33.30;22.41;102949.94;5094397;28;20544;-76
2022/08/06 10:13:30;;;;;;;0.20;0.20;;;;;;;32.06;21.21;102941.53;5113015;28;20059;-76
2022/08/06 10:15:58;;;;;;;0.13;0.08;;;;;;;34.76;20.22;102949.59;5094867;28;20038;-77
2022/08/06 10:18:43;;;;;;;1.63;0.40;;;;;;;35.35;19.70;102950.31;5112466;28;20103;-78
2022/08/06 10:21:11;;;;;;;2.20;0.40;;;;;;;35.13;19.86;102946.63;5113228;28;20023;-77
2022/08/06 10:23:41;;;;;;;2.22;0.32;;;;;;;35.35;19.12;102955.75;5094880;28;20030;-77
2022/08/06 10:26:10;;;;;;;1.20;0.20;;;;;;;34.34;19.44;102952.94;5112282;28;20015;-77
2022/08/06 10:28:37;;;;;;;2.05;0.32;;;;;;;34.56;19.51;102949.38;5094326;28;20027;-76
2022/08/06 10:31:06;;;;;;;3.33;0.35;;;;;;;35.56;18.55;102948.50;5094570;28;20028;-76
2022/08/06 10:33:39;;;;;;;0.90;0.35;;;;;;;34.57;18.24;102951.13;5112167;28;20023;-77
2022/08/06 10:36:09;;;;;;;1.27;0.30;;;;;;;33.31;20.12;102961.63;5112570;28;20031;-76
2022/08/06 10:38:37;;;;;;;0.10;0.10;;;;;;;33.11;21.30;102960.34;5093214;28;20026;-77
2022/08/06 10:41:07;;;;;;;1.05;0.25;;;;;;;32.47;20.23;102950.47;5094221;28;20019;-77
2022/08/06 10:43:35;;;;;;;2.10;0.40;;;;;;;32.70;20.58;102956.13;5094497;28;20487;-76
2022/08/06 10:46:05;;;;;;;2.28;0.20;;;;;;;33.26;19.79;102947.56;5090151;28;20172;-77
2022/08/06 10:48:30;;;;;;;0.32;0.32;;;;;;;34.62;20.35;102943.47;5090998;28;20023;-77
2022/08/06 10:50:56;;;;;;;0.85;0.30;;;;;;;34.87;18.94;102946.06;5091096;28;20032;-77
2022/08/06 10:53:23;;;;;;;0.88;0.28;;;;;;;34.70;19.28;102940.13;5090066;28;20024;-76
2022/08/06 10:55:48;;;;;;;0.30;0.22;;;;;;;34.70;20.80;102944.69;5090880;28;20024;-76
2022/08/06 10:58:14;;;;;;;0.55;0.30;;;;;;;34.10;19.47;102947.56;5090803;28;20493;-76
2022/08/06 11:00:42;;;;;;;0.20;0.20;;;;;;;34.59;19.23;102943.69;5091755;28;20032;-76
2022/08/06 11:03:30;;;;;;;0.65;0.30;;;;;;;31.89;20.40;102953.53;5090638;28;20058;-76
2022/08/06 11:06:08;;;;;;;0.43;0.30;;;;;;;32.37;20.06;102943.97;5090594;28;20054;-76
2022/08/06 11:08:50;;;;;;;0.55;0.47;;;;;;;34.20;18.98;102939.56;5090200;28;20020;-76
2022/08/06 11:11:26;;;;;;;;;;;;;;;34.37;18.79;102932.84;5091253;28;20508;-76
2022/08/06 11:14:00;;;;;;;0.38;0.28;;;;;;;33.88;18.55;102930.25;5089720;28;19911;-76
2022/08/06 11:16:30;;;;;;;1.08;0.55;;;;;;;33.22;20.03;102941.50;5091594;28;20039;-78
2022/08/06 11:19:07;;;;;;;0.47;0.47;;;;;;;32.05;21.25;102933.53;5091895;28;20060;-77
2022/08/06 11:21:44;;;;;;;1.38;0.70;;;;;;;32.21;20.05;102928.81;5091429;28;20030;-76
2022/08/06 11:24:12;;;;;;;1.33;0.70;;;;;;;32.13;21.19;102937.44;5091925;28;20039;-75
2022/08/06 11:26:39;;;;;;;0.75;0.75;;;;;;;32.60;19.87;102929.69;5090603;28;20024;-76
2022/08/06 11:29:10;;;;;;;1.88;0.60;;;;;;;32.64;19.46;102925.78;5089808;28;20024;-75
2022/08/06 11:31:46;;;;;;;1.63;0.55;;;;;;;30.27;22.39;102926.06;5091981;28;20032;-76
2022/08/06 11:34:15;;;;;;;0.68;0.68;;;;;;;30.26;21.01;102935.13;5091792;28;20020;-76
2022/08/06 11:36:47;;;;;;;0.40;0.40;;;;;;;31.12;21.06;102923.50;5090108;28;20081;-75
2022/08/06 11:39:13;;;;;;;0.30;0.30;;;;;;;31.74;20.64;102925.69;5090430;28;20498;-76
2022/08/06 11:41:50;;;;;;;0.50;0.45;;;;;;;33.27;20.13;102923.06;5091536;28;20032;-77